createdAt,value
2023-02-06T00:00:53.089Z,98530.13
2023-02-06T00:03:20.440Z,98537.19
2023-02-06T00:05:58.899Z,98533.75
2023-02-06T00:08:26.830Z,98535.69
2023-02-06T00:10:53.661Z,98544.53
2023-02-06T00:13:21.048Z,98535.66
2023-02-06T00:15:47.927Z,98538.84
2023-02-06T00:18:14.541Z,98545.22
2023-02-06T00:20:41.331Z,98540.22
2023-02-06T00:23:07.924Z,98539.66
2023-02-06T00:25:34.946Z,98533.00
2023-02-06T00:28:01.757Z,98553.50
2023-02-06T00:30:28.820Z,98539.66
2023-02-06T00:32:55.399Z,98538.44
2023-02-06T00:35:22.224Z,98541.34
2023-02-06T00:37:49.168Z,98545.47
2023-02-06T00:40:17.041Z,98543.69
2023-02-06T00:42:43.784Z,98547.28
2023-02-06T00:45:10.737Z,98542.84
2023-02-06T00:47:37.528Z,98550.34
2023-02-06T00:50:05.149Z,98543.28
2023-02-06T00:52:32.128Z,98548.28
2023-02-06T00:54:58.838Z,98542.16
2023-02-06T00:57:25.589Z,98544.97
2023-02-06T00:59:54.424Z,98544.13
2023-02-06T01:02:21.519Z,98545.38
2023-02-06T01:04:48.264Z,98548.41
2023-02-06T01:07:14.890Z,98555.63
2023-02-06T01:09:41.801Z,98552.44
2023-02-06T01:12:08.428Z,98548.56
2023-02-06T01:14:35.324Z,98554.50
2023-02-06T01:17:01.945Z,98553.25
2023-02-06T01:19:28.777Z,98549.69
2023-02-06T01:21:55.728Z,98543.28
2023-02-06T01:24:22.399Z,98555.63
2023-02-06T01:26:49.050Z,98538.59
2023-02-06T01:29:15.816Z,98559.50
2023-02-06T01:31:43.451Z,98557.41
2023-02-06T01:34:10.160Z,98562.41
2023-02-06T01:36:36.985Z,98554.38
2023-02-06T01:39:04.806Z,98560.75
2023-02-06T01:41:31.428Z,98557.81
2023-02-06T01:44:14.999Z,98551.63
2023-02-06T01:46:46.925Z,98549.81
2023-02-06T01:49:41.559Z,98553.09
2023-02-06T01:52:19.400Z,98556.28
2023-02-06T01:54:52.188Z,98546.31
2023-02-06T01:57:20.038Z,98546.03
2023-02-06T01:59:52.269Z,98543.69
2023-02-06T02:02:20.013Z,98544.94
2023-02-06T02:04:46.967Z,98550.47
2023-02-06T02:07:25.544Z,98557.94
2023-02-06T02:09:52.579Z,98556.81
2023-02-06T02:12:20.072Z,98560.13
2023-02-06T02:14:50.061Z,98559.84
2023-02-06T02:17:22.711Z,98554.31
2023-02-06T02:20:07.962Z,98558.88
2023-02-06T02:22:46.326Z,98566.91
2023-02-06T02:25:50.312Z,98571.38
2023-02-06T02:28:39.980Z,98556.69
2023-02-06T02:31:39.003Z,98566.22
2023-02-06T02:34:29.914Z,98570.38
2023-02-06T02:37:22.562Z,98580.09
2023-02-06T02:40:16.074Z,98569.00
2023-02-06T02:43:10.627Z,98577.56
2023-02-06T02:45:46.360Z,98588.97
2023-02-06T02:48:18.808Z,98585.34
2023-02-06T02:50:46.364Z,98601.81
2023-02-06T02:53:14.878Z,98593.38
2023-02-06T02:55:42.077Z,98590.47
2023-02-06T02:58:19.384Z,98609.59
2023-02-06T03:00:51.163Z,98609.88
2023-02-06T03:03:22.847Z,98609.47
2023-02-06T03:06:40.266Z,98610.56
2023-02-06T03:09:29.827Z,98611.00
2023-02-06T03:12:07.350Z,98604.47
2023-02-06T03:14:44.201Z,98615.00
2023-02-06T03:17:18.383Z,98591.19
2023-02-06T03:19:52.461Z,98610.56
2023-02-06T03:22:20.366Z,98604.22
2023-02-06T03:24:49.127Z,98603.09
2023-02-06T03:27:17.906Z,98594.91
2023-02-06T03:29:47.733Z,98593.69
2023-02-06T03:32:28.247Z,98578.72
2023-02-06T03:35:06.507Z,98594.63
2023-02-06T03:37:34.512Z,98596.16
2023-02-06T03:40:02.428Z,98590.03
2023-02-06T03:42:31.019Z,98608.34
2023-02-06T03:45:03.512Z,98605.28
2023-02-06T03:47:32.011Z,98604.75
2023-02-06T03:50:01.595Z,98590.50
2023-02-06T03:52:37.945Z,98613.91
2023-02-06T03:55:10.674Z,98616.13
2023-02-06T03:57:38.224Z,98612.38
2023-02-06T04:00:06.370Z,98628.16
2023-02-06T04:02:33.209Z,98630.94
2023-02-06T04:04:59.836Z,98631.09
2023-02-06T04:07:29.710Z,98627.19
2023-02-06T04:09:56.611Z,98619.03
2023-02-06T04:12:24.698Z,98625.13
2023-02-06T04:14:52.317Z,98625.69
2023-02-06T04:17:38.449Z,98618.19
2023-02-06T04:20:06.537Z,98594.66
2023-02-06T04:22:33.485Z,98607.53
2023-02-06T04:25:00.153Z,98610.56
2023-02-06T04:27:27.116Z,98605.03
2023-02-06T04:29:53.835Z,98607.66
2023-02-06T04:32:20.661Z,98612.75
2023-02-06T04:34:47.579Z,98620.63
2023-02-06T04:37:14.662Z,98628.25
2023-02-06T04:39:41.478Z,98634.03
2023-02-06T04:42:08.484Z,98628.22
2023-02-06T04:44:35.432Z,98624.84
2023-02-06T04:47:03.182Z,98625.13
2023-02-06T04:49:30.230Z,98626.91
2023-02-06T04:51:57.207Z,98636.28
2023-02-06T04:54:23.902Z,98644.69
2023-02-06T04:56:50.767Z,98643.44
2023-02-06T04:59:17.723Z,98647.72
2023-02-06T05:01:44.397Z,98657.50
2023-02-06T05:04:11.042Z,98664.00
2023-02-06T05:06:37.907Z,98667.72
2023-02-06T05:09:05.771Z,98664.66
2023-02-06T05:11:32.477Z,98671.94
2023-02-06T05:13:59.184Z,98673.31
2023-02-06T05:16:25.814Z,98660.94
2023-02-06T05:18:55.255Z,98670.63
2023-02-06T05:21:22.902Z,98668.53
2023-02-06T05:23:49.488Z,98667.97
2023-02-06T05:26:16.118Z,98676.22
2023-02-06T05:28:43.011Z,98669.00
2023-02-06T05:31:09.874Z,98664.63
2023-02-06T05:33:36.599Z,98685.13
2023-02-06T05:36:05.442Z,98680.94
2023-02-06T05:38:32.835Z,98678.00
2023-02-06T05:41:00.033Z,98683.63
2023-02-06T05:43:26.935Z,98686.63
2023-02-06T05:45:53.817Z,98689.66
2023-02-06T05:48:20.690Z,98696.78
2023-02-06T05:50:50.982Z,98680.13
2023-02-06T05:53:18.502Z,98688.25
2023-02-06T05:55:45.254Z,98693.50
2023-02-06T05:58:12.842Z,98703.88
2023-02-06T06:00:43.523Z,98690.16
2023-02-06T06:03:10.233Z,98676.03
2023-02-06T06:05:37.359Z,98696.50
2023-02-06T06:08:05.665Z,98694.22
2023-02-06T06:10:32.598Z,98699.31
2023-02-06T06:13:00.410Z,98695.75
2023-02-06T06:15:27.118Z,98698.81
2023-02-06T06:17:53.709Z,98696.22
2023-02-06T06:20:20.543Z,98695.25
2023-02-06T06:22:47.232Z,98701.31
2023-02-06T06:25:14.065Z,98701.31
2023-02-06T06:27:40.866Z,98689.94
2023-02-06T06:30:08.151Z,98698.25
2023-02-06T06:32:34.747Z,98704.66
2023-02-06T06:35:01.733Z,98709.53
2023-02-06T06:37:28.380Z,98710.81
2023-02-06T06:39:55.224Z,98719.16
2023-02-06T06:42:22.061Z,98703.53
2023-02-06T06:44:48.625Z,98714.69
2023-02-06T06:47:15.317Z,98724.53
2023-02-06T06:49:42.197Z,98724.03
2023-02-06T06:52:22.980Z,98709.59
2023-02-06T06:54:51.994Z,98721.66
2023-02-06T06:57:19.032Z,98716.47
2023-02-06T06:59:45.661Z,98701.88
2023-02-06T07:02:12.536Z,98703.03
2023-02-06T07:04:39.263Z,98708.31
2023-02-06T07:07:06.327Z,98709.88
2023-02-06T07:09:33.222Z,98708.53
2023-02-06T07:11:59.838Z,98708.13
2023-02-06T07:14:26.593Z,98711.22
2023-02-06T07:16:53.508Z,98710.56
2023-02-06T07:19:21.467Z,98712.41
2023-02-06T07:21:48.173Z,98717.97
2023-02-06T07:24:14.988Z,98705.25
2023-02-06T07:26:41.648Z,98712.47
2023-02-06T07:29:08.380Z,98699.88
2023-02-06T07:31:35.699Z,98707.50
2023-02-06T07:34:02.400Z,98706.78
2023-02-06T07:36:29.132Z,98713.88
2023-02-06T07:38:56.175Z,98703.34
2023-02-06T07:41:22.812Z,98721.91
2023-02-06T07:43:49.898Z,98723.88
2023-02-06T07:46:16.961Z,98704.78
2023-02-06T07:48:43.691Z,98723.44
2023-02-06T07:51:10.583Z,98712.09
2023-02-06T07:53:37.869Z,98731.38
2023-02-06T07:56:13.291Z,98720.72
2023-02-06T07:58:40.315Z,98723.34
2023-02-06T08:01:07.914Z,98731.41
2023-02-06T08:03:34.695Z,98727.22
2023-02-06T08:06:01.853Z,98725.13
2023-02-06T08:08:28.626Z,98737.75
2023-02-06T08:10:55.239Z,98745.78
2023-02-06T08:13:22.007Z,98736.22
2023-02-06T08:15:48.594Z,98739.31
2023-02-06T08:18:15.234Z,98738.22
2023-02-06T08:20:50.974Z,98747.19
2023-02-06T08:23:19.642Z,98739.53
2023-02-06T08:25:47.439Z,98741.69
2023-02-06T08:28:15.086Z,98753.88
2023-02-06T08:30:41.815Z,98744.28
2023-02-06T08:33:08.671Z,98738.81
2023-02-06T08:35:35.620Z,98738.75
2023-02-06T08:38:02.374Z,98733.19
2023-02-06T08:40:29.061Z,98736.97
2023-02-06T08:42:55.928Z,98747.31
2023-02-06T08:45:22.633Z,98743.34
2023-02-06T08:47:50.329Z,98743.66
2023-02-06T08:50:17.227Z,98753.88
2023-02-06T08:52:43.867Z,98735.56
2023-02-06T08:55:10.637Z,98742.97
2023-02-06T08:57:37.491Z,98750.34
2023-02-06T09:00:04.869Z,98747.56
2023-02-06T09:02:31.737Z,98752.59
2023-02-06T09:04:58.502Z,98759.25
2023-02-06T09:07:25.237Z,98749.81
2023-02-06T09:09:51.867Z,98751.31
2023-02-06T09:12:18.618Z,98755.59
2023-02-06T09:25:36.245Z,98746.69
2023-02-06T09:28:05.838Z,98756.69
2023-02-06T09:30:34.055Z,98760.03
2023-02-06T09:33:02.445Z,98735.63
2023-02-06T09:35:30.349Z,98739.19
2023-02-06T09:37:59.069Z,98746.69
2023-02-06T09:40:29.821Z,98746.75
2023-02-06T09:42:57.178Z,98748.63
2023-02-06T09:45:27.318Z,98758.75
2023-02-06T09:48:00.005Z,98757.97
2023-02-06T09:50:45.685Z,98760.13
2023-02-06T09:53:30.459Z,98764.19
2023-02-06T09:56:55.602Z,98723.72
2023-02-06T09:59:41.732Z,98755.28
2023-02-06T10:02:46.030Z,98744.75
2023-02-06T10:05:44.477Z,98753.84
2023-02-06T10:08:22.632Z,98732.31
2023-02-06T10:10:56.488Z,98715.09
2023-02-06T10:13:52.408Z,98741.66
2023-02-06T10:16:31.933Z,98735.38
2023-02-06T10:19:29.436Z,98737.88
2023-02-06T10:22:05.496Z,98729.72
2023-02-06T10:24:51.486Z,98739.34
2023-02-06T10:27:20.276Z,98743.50
2023-02-06T10:29:48.627Z,98718.81
2023-02-06T10:32:38.656Z,98710.50
2023-02-06T10:35:34.835Z,98693.59
2023-02-06T10:38:17.351Z,98731.38
2023-02-06T10:40:54.890Z,98719.44
2023-02-06T10:43:49.504Z,98737.97
2023-02-06T10:46:20.283Z,98742.28
2023-02-06T10:48:58.302Z,98745.25
2023-02-06T10:51:28.291Z,98741.25
2023-02-06T10:54:00.398Z,98727.34
2023-02-06T10:56:36.525Z,98721.69
2023-02-06T10:59:11.169Z,98723.66
2023-02-06T11:01:41.152Z,98726.59
2023-02-06T11:04:20.518Z,98719.59
2023-02-06T11:06:47.684Z,98726.03
2023-02-06T11:09:15.877Z,98721.41
2023-02-06T11:11:48.726Z,98724.53
2023-02-06T11:14:25.376Z,98714.88
2023-02-06T11:16:53.716Z,98717.66
2023-02-06T11:19:32.001Z,98712.66
2023-02-06T11:22:05.372Z,98718.59
2023-02-06T11:24:32.462Z,98705.16
2023-02-06T11:27:02.369Z,98707.41
2023-02-06T11:29:43.913Z,98716.78
2023-02-06T11:32:46.446Z,98705.03
2023-02-06T11:35:26.720Z,98719.03
2023-02-06T11:38:05.420Z,98710.03
2023-02-06T11:40:32.878Z,98714.28
2023-02-06T11:43:21.200Z,98693.91
2023-02-06T11:45:50.127Z,98709.44
2023-02-06T11:49:01.250Z,98666.47
2023-02-06T11:51:46.989Z,98709.59
2023-02-06T11:54:24.459Z,98719.63
2023-02-06T11:57:19.378Z,98716.13
2023-02-06T11:59:56.833Z,98720.44
2023-02-06T12:02:39.293Z,98716.06
2023-02-06T12:05:15.058Z,98713.06
2023-02-06T12:07:44.958Z,98714.41
2023-02-06T12:10:15.394Z,98704.00
2023-02-06T12:12:47.647Z,98710.88
2023-02-06T12:15:43.516Z,98702.59
2023-02-06T12:18:13.171Z,98698.41
2023-02-06T12:20:51.139Z,98703.47
2023-02-06T12:23:36.593Z,98706.09
2023-02-06T12:26:08.765Z,98699.91
2023-02-06T12:29:00.340Z,98703.50
2023-02-06T12:31:36.667Z,98707.66
2023-02-06T12:34:15.489Z,98709.97
2023-02-06T12:36:55.014Z,98706.13
2023-02-06T12:39:23.347Z,98706.88
2023-02-06T12:42:03.158Z,98716.19
2023-02-06T12:44:43.437Z,98708.31
2023-02-06T12:47:30.268Z,98715.41
2023-02-06T12:50:03.101Z,98707.75
2023-02-06T12:52:48.940Z,98710.56
2023-02-06T12:55:28.809Z,98700.69
2023-02-06T12:57:56.534Z,98700.22
2023-02-06T13:00:48.594Z,98701.59
2023-02-06T13:03:17.906Z,98701.94
2023-02-06T13:05:48.488Z,98699.94
2023-02-06T13:08:20.313Z,98705.91
2023-02-06T13:10:59.423Z,98711.81
2023-02-06T13:13:37.002Z,98716.22
2023-02-06T13:16:04.761Z,98709.09
2023-02-06T13:18:50.679Z,98718.59
2023-02-06T13:21:28.832Z,98723.19
2023-02-06T13:24:01.158Z,98717.94
2023-02-06T13:26:55.415Z,98723.38
2023-02-06T13:29:35.571Z,98718.78
2023-02-06T13:32:22.621Z,98720.00
2023-02-06T13:34:49.587Z,98725.31
2023-02-06T13:37:35.474Z,98726.16
2023-02-06T13:40:32.398Z,98727.34
2023-02-06T13:43:11.060Z,98732.19
2023-02-06T13:45:43.235Z,98726.88
2023-02-06T13:48:34.950Z,98732.00
2023-02-06T13:51:23.512Z,98738.25
2023-02-06T13:54:14.767Z,98741.78
2023-02-06T13:56:52.532Z,98743.78
2023-02-06T13:59:28.188Z,98737.16
2023-02-06T14:01:56.397Z,98731.56
2023-02-06T14:04:27.130Z,98738.66
2023-02-06T14:07:06.461Z,98738.53
2023-02-06T14:09:58.864Z,98744.13
2023-02-06T14:13:00.886Z,98742.81
2023-02-06T14:15:55.596Z,98746.41
2023-02-06T14:18:43.926Z,98746.00
2023-02-06T14:21:28.482Z,98748.28
2023-02-06T14:24:13.589Z,98751.44
2023-02-06T14:26:40.020Z,98755.13
2023-02-06T14:29:59.157Z,98745.50
2023-02-06T14:32:31.840Z,98742.00
2023-02-06T14:35:04.749Z,98748.16
2023-02-06T14:37:43.293Z,98749.63
2023-02-06T14:40:24.629Z,98753.47
2023-02-06T14:42:53.503Z,98755.78
2023-02-06T14:45:33.775Z,98755.78
2023-02-06T14:48:06.888Z,98752.94
2023-02-06T14:50:38.017Z,98758.25
2023-02-06T14:53:09.626Z,98760.91
2023-02-06T14:55:39.752Z,98767.06
2023-02-06T14:58:18.197Z,98762.09
2023-02-06T15:00:44.987Z,98767.25
2023-02-06T15:03:18.999Z,98766.94
2023-02-06T15:05:47.051Z,98764.19
2023-02-06T15:08:20.707Z,98759.56
2023-02-06T15:10:47.694Z,98765.38
2023-02-06T15:13:24.627Z,98765.38
2023-02-06T15:15:56.487Z,98766.84
2023-02-06T15:18:23.756Z,98773.34
2023-02-06T15:20:58.473Z,98776.66
2023-02-06T15:24:03.094Z,98768.84
2023-02-06T15:27:05.082Z,98764.53
2023-02-06T15:29:31.788Z,98777.72
2023-02-06T15:32:04.435Z,98770.44
2023-02-06T15:34:31.790Z,98784.63
2023-02-06T15:36:58.446Z,98780.19
2023-02-06T15:39:26.236Z,98776.56
2023-02-06T15:41:53.660Z,98781.13
2023-02-06T15:44:35.980Z,98781.16
2023-02-06T15:47:05.077Z,98782.84
2023-02-06T15:49:41.384Z,98783.41
2023-02-06T15:52:09.138Z,98785.91
2023-02-06T15:54:36.024Z,98784.09
2023-02-06T15:57:04.776Z,98797.63
2023-02-06T15:59:35.169Z,98787.00
2023-02-06T16:02:03.881Z,98788.19
2023-02-06T16:04:37.521Z,98797.34
2023-02-06T16:07:12.699Z,98810.13
2023-02-06T16:09:46.451Z,98814.97
2023-02-06T16:12:16.473Z,98806.34
2023-02-06T16:14:57.474Z,98815.63
2023-02-06T16:17:35.992Z,98815.59
2023-02-06T16:20:33.049Z,98820.75
2023-02-06T16:23:26.497Z,98828.00
2023-02-06T16:26:21.568Z,98828.31
2023-02-06T16:29:12.115Z,98823.13
2023-02-06T16:31:42.614Z,98838.69
2023-02-06T16:34:54.640Z,98830.88
2023-02-06T16:37:31.058Z,98837.31
2023-02-06T16:39:57.710Z,98828.34
2023-02-06T16:42:27.322Z,98846.06
2023-02-06T16:45:00.799Z,98841.25
2023-02-06T16:47:27.864Z,98853.47
2023-02-06T16:49:54.496Z,98854.47
2023-02-06T16:52:27.921Z,98863.56
2023-02-06T16:54:57.822Z,98861.56
2023-02-06T16:57:35.570Z,98857.72
2023-02-06T17:00:04.730Z,98856.06
2023-02-06T17:02:31.445Z,98858.22
2023-02-06T17:04:58.263Z,98859.06
2023-02-06T17:07:27.836Z,98864.34
2023-02-06T17:09:56.863Z,98864.34
2023-02-06T17:12:23.618Z,98869.34
2023-02-06T17:14:50.627Z,98867.19
2023-02-06T17:17:20.226Z,98863.06
2023-02-06T17:19:47.635Z,98863.88
2023-02-06T17:22:14.586Z,98866.88
2023-02-06T17:24:42.395Z,98873.34
2023-02-06T17:27:15.121Z,98875.84
2023-02-06T17:29:41.833Z,98863.75
2023-02-06T17:32:09.430Z,98862.09
2023-02-06T17:34:37.478Z,98871.38
2023-02-06T17:37:04.235Z,98884.63
2023-02-06T17:39:30.820Z,98877.63
2023-02-06T17:41:57.562Z,98877.50
2023-02-06T17:44:24.454Z,98881.66
2023-02-06T17:46:51.236Z,98869.69
2023-02-06T17:49:18.200Z,98875.38
2023-02-06T17:51:45.754Z,98865.94
2023-02-06T17:54:13.628Z,98867.75
2023-02-06T17:56:40.544Z,98866.63
2023-02-06T17:59:07.832Z,98862.78
2023-02-06T18:01:34.491Z,98857.81
2023-02-06T18:04:01.371Z,98875.09
2023-02-06T18:06:33.165Z,98863.97
2023-02-06T18:09:00.193Z,98871.22
2023-02-06T18:11:27.388Z,98882.22
2023-02-06T18:13:54.194Z,98877.72
2023-02-06T18:16:24.047Z,98870.59
2023-02-06T18:18:51.200Z,98876.09
2023-02-06T18:21:21.551Z,98872.53
2023-02-06T18:23:48.727Z,98873.75
2023-02-06T18:26:15.695Z,98888.31
2023-02-06T18:28:42.485Z,98883.97
2023-02-06T18:31:28.023Z,98882.63
2023-02-06T18:33:56.324Z,98882.41
2023-02-06T18:36:23.757Z,98870.97
2023-02-06T18:38:50.469Z,98885.06
2023-02-06T18:41:36.363Z,98885.72
2023-02-06T18:44:05.583Z,98890.31
2023-02-06T18:46:32.904Z,98880.38
2023-02-06T18:48:59.572Z,98882.03
2023-02-06T18:51:26.362Z,98881.22
2023-02-06T18:53:53.081Z,98886.34
2023-02-06T18:56:19.824Z,98880.69
2023-02-06T18:58:46.582Z,98871.84
2023-02-06T19:01:22.414Z,98886.13
2023-02-06T19:03:50.360Z,98887.94
2023-02-06T19:06:20.951Z,98896.34
2023-02-06T19:08:48.065Z,98898.47
2023-02-06T19:11:14.994Z,98895.63
2023-02-06T19:13:42.819Z,98906.22
2023-02-06T19:16:13.349Z,98902.91
2023-02-06T19:18:43.959Z,98914.75
2023-02-06T19:21:17.326Z,98909.78
2023-02-06T19:23:45.834Z,98908.44
2023-02-06T19:26:15.003Z,98911.41
2023-02-06T19:28:43.082Z,98912.69
2023-02-06T19:31:11.810Z,98912.28
2023-02-06T19:33:40.358Z,98893.78
2023-02-06T19:36:09.119Z,98921.31
2023-02-06T19:38:36.300Z,98920.88
2023-02-06T19:41:23.830Z,98919.50
2023-02-06T19:43:53.039Z,98926.22
2023-02-06T19:46:22.150Z,98930.44
2023-02-06T19:48:50.366Z,98925.06
2023-02-06T19:51:26.113Z,98931.41
2023-02-06T19:53:54.580Z,98930.91
2023-02-06T19:56:27.244Z,98930.16
2023-02-06T19:58:59.082Z,98924.91
2023-02-06T20:01:26.867Z,98933.88
2023-02-06T20:03:53.900Z,98927.50
2023-02-06T20:06:20.555Z,98925.59
2023-02-06T20:08:47.290Z,98930.59
2023-02-06T20:11:16.859Z,98938.56
2023-02-06T20:13:44.657Z,98937.78
2023-02-06T20:16:24.893Z,98946.41
2023-02-06T20:18:52.019Z,98941.69
2023-02-06T20:21:31.355Z,98937.81
2023-02-06T20:24:00.816Z,98935.75
2023-02-06T20:26:31.267Z,98944.63
2023-02-06T20:28:58.457Z,98938.66
2023-02-06T20:31:26.052Z,98934.25
2023-02-06T20:33:54.186Z,98942.44
2023-02-06T20:36:23.824Z,98937.72
2023-02-06T20:38:55.987Z,98949.50
2023-02-06T20:41:27.622Z,98938.69
2023-02-06T20:43:57.268Z,98939.09
2023-02-06T20:46:26.413Z,98937.72
2023-02-06T20:48:58.916Z,98938.69
2023-02-06T20:51:27.228Z,98943.28
2023-02-06T20:53:54.302Z,98948.53
2023-02-06T20:56:21.964Z,98950.34
2023-02-06T20:58:51.082Z,98942.00
2023-02-06T21:01:23.180Z,98945.47
2023-02-06T21:03:51.922Z,98948.09
2023-02-06T21:06:18.969Z,98949.91
2023-02-06T21:08:48.084Z,98958.25
2023-02-06T21:11:14.730Z,98955.22
2023-02-06T21:13:41.523Z,98957.00
2023-02-06T21:16:13.369Z,98956.59
2023-02-06T21:18:42.576Z,98959.19
2023-02-06T21:21:12.443Z,98938.38
2023-02-06T21:23:41.240Z,98948.66
2023-02-06T21:26:09.114Z,98931.25
2023-02-06T21:28:37.110Z,98955.84
2023-02-06T21:31:06.988Z,98959.56
2023-02-06T21:33:35.235Z,98953.31
2023-02-06T21:36:03.674Z,98957.03
2023-02-06T21:38:30.346Z,98941.75
2023-02-06T21:41:03.620Z,98961.00
2023-02-06T21:43:30.685Z,98966.81
2023-02-06T21:45:58.016Z,98970.69
2023-02-06T21:48:24.755Z,98973.59
2023-02-06T21:50:51.564Z,98974.09
2023-02-06T21:53:18.253Z,98979.63
2023-02-06T21:55:45.433Z,98989.81
2023-02-06T21:58:16.079Z,98982.59
2023-02-06T22:00:45.178Z,98984.78
2023-02-06T22:03:13.326Z,98985.47
2023-02-06T22:05:40.220Z,98972.38
2023-02-06T22:08:06.978Z,98988.81
2023-02-06T22:10:36.802Z,98984.28
2023-02-06T22:13:05.201Z,98989.53
2023-02-06T22:15:32.693Z,98986.31
2023-02-06T22:18:01.282Z,98986.00
2023-02-06T22:20:28.244Z,98984.03
2023-02-06T22:22:56.241Z,98986.19
2023-02-06T22:25:22.887Z,98977.53
2023-02-06T22:27:49.888Z,98988.78
2023-02-06T22:30:16.788Z,98990.44
2023-02-06T22:32:43.506Z,98991.84
2023-02-06T22:35:10.359Z,98992.56
2023-02-06T22:37:37.060Z,99000.44
2023-02-06T22:40:04.029Z,98990.75
2023-02-06T22:42:30.739Z,98998.50
2023-02-06T22:44:57.435Z,98987.66
2023-02-06T22:47:24.110Z,99006.06
2023-02-06T22:49:53.676Z,98999.53
2023-02-06T22:52:59.149Z,98992.41
2023-02-06T22:55:45.940Z,98999.59
2023-02-06T22:58:12.561Z,98986.25
2023-02-06T23:00:39.615Z,98991.88
2023-02-06T23:03:06.318Z,98984.63
2023-02-06T23:05:35.647Z,98982.63
2023-02-06T23:08:02.486Z,98985.63
2023-02-06T23:10:29.654Z,98992.34
2023-02-06T23:12:56.260Z,98990.56
2023-02-06T23:15:26.436Z,98996.22
2023-02-06T23:17:53.200Z,98995.03
2023-02-06T23:20:20.839Z,99001.59
2023-02-06T23:22:47.559Z,98986.22
2023-02-06T23:25:21.995Z,98993.41
2023-02-06T23:27:48.775Z,98992.94
2023-02-06T23:30:15.449Z,98990.78
2023-02-06T23:32:42.179Z,98989.66
2023-02-06T23:35:10.090Z,98979.84
2023-02-06T23:37:39.831Z,98980.91
2023-02-06T23:40:08.943Z,98980.91
2023-02-06T23:42:36.078Z,98990.81
2023-02-06T23:45:02.806Z,98987.50
2023-02-06T23:47:32.333Z,98990.34
2023-02-06T23:49:59.305Z,98982.94
2023-02-06T23:52:25.908Z,98994.78
2023-02-06T23:54:55.537Z,98991.41
2023-02-06T23:57:23.207Z,98995.13
2023-02-06T23:59:51.392Z,98990.34
